createdAt,value
2018-07-28T00:01:02.285Z,99077.36
2018-07-28T00:03:34.405Z,99073.36
2018-07-28T00:06:04.055Z,99069.44
2018-07-28T00:08:32.434Z,99072.58
2018-07-28T00:11:14.714Z,99078.26
2018-07-28T00:13:42.640Z,99067.65
2018-07-28T00:16:12.430Z,99068.92
2018-07-28T00:18:43.785Z,99062.07
2018-07-28T00:21:13.313Z,99060.93
2018-07-28T00:23:42.506Z,99061.19
2018-07-28T00:26:16.298Z,99052.73
2018-07-28T00:28:44.297Z,99053.55
2018-07-28T00:31:14.206Z,99054.30
2018-07-28T00:33:46.640Z,99050.56
2018-07-28T00:36:16.992Z,99050.85
2018-07-28T00:38:50.238Z,99040.74
2018-07-28T00:41:17.936Z,99044.93
2018-07-28T00:43:48.239Z,99034.70
2018-07-28T00:46:16.479Z,99038.18
2018-07-28T00:48:45.609Z,99036.53
2018-07-28T00:54:45.436Z,99021.93
2018-07-28T00:57:13.528Z,99026.84
2018-07-28T00:59:41.232Z,99022.72
2018-07-28T01:02:10.252Z,99018.73
2018-07-28T01:04:39.665Z,99022.37
2018-07-28T01:07:17.685Z,99015.34
2018-07-28T01:09:46.773Z,99012.67
2018-07-28T01:12:14.469Z,99011.16
2018-07-28T01:14:42.546Z,99005.73
2018-07-28T01:17:10.212Z,99003.86
2018-07-28T01:19:37.899Z,99002.53
2018-07-28T01:22:05.997Z,98992.45
2018-07-28T01:24:33.677Z,98996.35
2018-07-28T01:27:01.445Z,99001.63
2018-07-28T01:29:29.441Z,98994.47
2018-07-28T01:31:57.162Z,98994.79
2018-07-28T01:34:24.861Z,98988.19
2018-07-28T01:36:52.569Z,98985.45
2018-07-28T01:39:20.596Z,98981.08
2018-07-28T01:41:48.295Z,98984.58
2018-07-28T01:44:15.977Z,98986.70
2018-07-28T01:46:43.682Z,98985.00
2018-07-28T01:49:11.639Z,98987.13
2018-07-28T01:51:39.338Z,98979.39
2018-07-28T01:54:07.021Z,98976.23
2018-07-28T01:56:34.684Z,98971.43
2018-07-28T01:59:02.388Z,98971.28
2018-07-28T02:01:30.388Z,98969.15
2018-07-28T02:03:58.662Z,98968.95
2018-07-28T02:06:26.629Z,98967.70
2018-07-28T02:08:54.352Z,98965.33
2018-07-28T02:11:22.110Z,98960.83
2018-07-28T02:13:50.075Z,98954.88
2018-07-28T02:16:17.751Z,98952.25
2018-07-28T02:18:45.558Z,98942.22
2018-07-28T02:21:13.523Z,98940.44
2018-07-28T02:23:41.204Z,98942.13
2018-07-28T02:26:09.443Z,98938.14
2018-07-28T02:28:37.987Z,98934.05
2018-07-28T02:31:05.642Z,98932.20
2018-07-28T02:33:33.309Z,98930.14
2018-07-28T02:36:01.014Z,98922.02
2018-07-28T02:38:29.130Z,98918.87
2018-07-28T02:40:56.782Z,98915.45
2018-07-28T02:43:24.463Z,98914.75
2018-07-28T02:45:53.698Z,98911.02
2018-07-28T02:48:21.661Z,98914.11
2018-07-28T02:50:49.333Z,98910.68
2018-07-28T02:53:16.968Z,98913.31
2018-07-28T02:55:45.078Z,98906.38
2018-07-28T02:58:12.718Z,98906.66
2018-07-28T03:00:40.405Z,98899.14
2018-07-28T03:03:08.090Z,98898.66
2018-07-28T03:05:36.046Z,98898.42
2018-07-28T03:08:03.760Z,98904.72
2018-07-28T03:10:31.417Z,98895.64
2018-07-28T03:12:59.119Z,98894.98
2018-07-28T03:15:30.131Z,98894.57
2018-07-28T03:17:57.797Z,98896.13
2018-07-28T03:20:25.460Z,98895.37
2018-07-28T03:22:53.655Z,98895.80
2018-07-28T03:25:21.879Z,98894.86
2018-07-28T03:27:49.791Z,98899.94
2018-07-28T03:30:17.979Z,98894.95
2018-07-28T03:32:45.634Z,98891.64
2018-07-28T03:35:13.499Z,98896.72
2018-07-28T03:37:41.212Z,98891.14
2018-07-28T03:40:09.711Z,98888.68
2018-07-28T03:42:37.404Z,98887.55
2018-07-28T03:45:05.172Z,98886.41
2018-07-28T03:47:33.340Z,98886.34
2018-07-28T03:50:01.319Z,98879.79
2018-07-28T03:52:29.030Z,98879.72
2018-07-28T03:54:56.837Z,98877.81
2018-07-28T03:57:26.452Z,98875.42
2018-07-28T03:59:54.143Z,98871.56
2018-07-28T04:02:22.380Z,98872.34
2018-07-28T04:04:50.025Z,98870.36
2018-07-28T04:07:18.008Z,98867.89
2018-07-28T04:09:45.704Z,98882.02
2018-07-28T04:12:13.411Z,98955.70
2018-07-28T04:14:41.087Z,98963.67
2018-07-28T04:17:09.231Z,98927.75
2018-07-28T04:19:36.900Z,98913.66
2018-07-28T04:22:04.571Z,98916.20
2018-07-28T04:24:32.220Z,98916.71
2018-07-28T04:27:01.138Z,98924.30
2018-07-28T04:29:28.832Z,98927.95
2018-07-28T04:31:57.923Z,98928.57
2018-07-28T04:34:25.596Z,98934.31
2018-07-28T04:36:54.337Z,98933.53
2018-07-28T04:39:22.015Z,98937.12
2018-07-28T04:41:49.670Z,98939.39
2018-07-28T04:44:17.594Z,98929.66
2018-07-28T04:46:45.292Z,98947.44
2018-07-28T04:49:12.961Z,98889.45
2018-07-28T04:51:40.641Z,98956.37
2018-07-28T04:54:08.576Z,98908.33
2018-07-28T04:56:36.256Z,98920.80
2018-07-28T04:59:03.943Z,98955.28
2018-07-28T05:01:31.875Z,98933.87
2018-07-28T05:03:59.697Z,98955.25
2018-07-28T05:06:27.356Z,98922.34
2018-07-28T05:08:55.443Z,98908.27
2018-07-28T05:11:23.127Z,98915.66
2018-07-28T05:13:50.800Z,98916.84
2018-07-28T05:16:18.537Z,98910.31
2018-07-28T05:18:48.971Z,98906.02
2018-07-28T05:21:16.675Z,98884.29
2018-07-28T05:23:44.410Z,98887.13
2018-07-28T05:26:12.497Z,98907.17
2018-07-28T05:28:40.219Z,98913.80
2018-07-28T05:31:07.898Z,98902.39
2018-07-28T05:33:35.575Z,98902.77
2018-07-28T05:36:03.498Z,98903.11
2018-07-28T05:38:31.169Z,98904.26
2018-07-28T05:40:58.839Z,98900.78
2018-07-28T05:43:26.791Z,98897.07
2018-07-28T05:45:55.415Z,98891.16
2018-07-28T05:48:23.116Z,98897.79
2018-07-28T05:50:50.783Z,98896.24
2018-07-28T05:53:18.859Z,98889.27
2018-07-28T05:55:46.556Z,98888.56
2018-07-28T05:58:14.219Z,98880.74
2018-07-28T06:00:41.899Z,98885.50
2018-07-28T06:03:09.572Z,98879.60
2018-07-28T06:05:38.510Z,98873.42
2018-07-28T06:08:06.146Z,98871.09
2018-07-28T06:10:33.819Z,98864.66
2018-07-28T06:13:03.394Z,98869.69
2018-07-28T06:15:31.078Z,98875.84
2018-07-28T06:18:00.052Z,98880.45
2018-07-28T06:20:28.044Z,98879.55
2018-07-28T06:22:55.711Z,98877.86
2018-07-28T06:25:23.392Z,98875.63
2018-07-28T06:27:51.428Z,98868.08
2018-07-28T06:30:19.136Z,98871.52
2018-07-28T06:32:46.832Z,98877.97
2018-07-28T06:35:14.819Z,98887.91
2018-07-28T06:37:42.475Z,98882.99
2018-07-28T06:40:10.143Z,98889.53
2018-07-28T06:42:38.232Z,98886.71
2018-07-28T06:45:05.902Z,98886.36
2018-07-28T06:47:33.556Z,98886.25
2018-07-28T06:52:33.722Z,98897.36
2018-07-28T06:55:01.369Z,98891.02
2018-07-28T06:57:29.335Z,98907.41
2018-07-28T06:59:57.053Z,98928.72
2018-07-28T07:02:24.716Z,98946.73
2018-07-28T07:04:53.347Z,98947.19
2018-07-28T07:07:21.791Z,98966.80
2018-07-28T07:09:50.432Z,98985.56
2018-07-28T07:12:18.411Z,98985.97
2018-07-28T07:14:46.256Z,98990.14
2018-07-28T07:17:13.910Z,98992.66
2018-07-28T07:19:41.815Z,98998.80
2018-07-28T07:22:10.374Z,99006.59
2018-07-28T07:24:38.076Z,98999.14
2018-07-28T07:27:06.018Z,99008.14
2018-07-28T07:29:33.779Z,99008.89
2018-07-28T07:32:01.467Z,99015.39
2018-07-28T07:34:31.377Z,99007.77
2018-07-28T07:36:59.742Z,99014.02
2018-07-28T07:39:27.427Z,99023.55
2018-07-28T07:41:55.378Z,99018.94
2018-07-28T07:44:23.054Z,99021.67
2018-07-28T07:46:50.752Z,99019.50
2018-07-28T07:49:18.707Z,99017.66
2018-07-28T07:51:46.391Z,99016.39
2018-07-28T07:54:15.028Z,99014.12
2018-07-28T07:56:43.757Z,99023.92
2018-07-28T07:59:11.407Z,99035.45
2018-07-28T08:01:39.618Z,99040.71
2018-07-28T08:04:07.551Z,99050.63
2018-07-28T08:06:35.374Z,99047.59
2018-07-28T08:09:04.031Z,99053.63
2018-07-28T08:11:34.447Z,99043.88
2018-07-28T08:14:02.167Z,99044.27
2018-07-28T08:16:29.935Z,99056.16
2018-07-28T08:18:57.918Z,99066.67
2018-07-28T08:21:25.558Z,99071.75
2018-07-28T08:23:54.068Z,99069.11
2018-07-28T08:26:22.003Z,99063.86
2018-07-28T08:28:50.606Z,99056.69
2018-07-28T08:31:18.304Z,99046.44
2018-07-28T08:33:46.272Z,99062.10
2018-07-28T08:36:13.977Z,99055.36
2018-07-28T08:38:41.677Z,99059.76
2018-07-28T08:41:09.727Z,99059.05
2018-07-28T08:43:37.894Z,99054.48
2018-07-28T08:46:05.542Z,99061.91
2018-07-28T08:48:33.535Z,99063.76
2018-07-28T08:51:01.220Z,99048.53
2018-07-28T08:53:29.943Z,99049.58
2018-07-28T08:55:57.941Z,99043.98
2018-07-28T08:58:26.043Z,99042.81
2018-07-28T09:00:54.367Z,99049.55
2018-07-28T09:03:23.593Z,99044.83
2018-07-28T09:05:51.267Z,99054.21
2018-07-28T09:08:20.726Z,99059.55
2018-07-28T09:10:49.423Z,99059.45
2018-07-28T09:13:17.920Z,99064.95
2018-07-28T09:15:45.583Z,99078.23
2018-07-28T09:18:13.656Z,99086.60
2018-07-28T09:20:42.350Z,99093.10
2018-07-28T09:23:10.036Z,99091.94
2018-07-28T09:25:38.024Z,99091.21
2018-07-28T09:28:05.697Z,99101.24
2018-07-28T09:30:33.372Z,99110.84
2018-07-28T09:33:02.171Z,99101.33
2018-07-28T09:35:30.669Z,99106.93
2018-07-28T09:37:58.343Z,99116.28
2018-07-28T09:40:26.283Z,99111.91
2018-07-28T09:42:53.960Z,99124.91
2018-07-28T09:45:21.662Z,99128.88
2018-07-28T09:47:49.615Z,99146.17
2018-07-28T09:50:17.306Z,99143.31
2018-07-28T09:52:46.701Z,99144.58
2018-07-28T09:55:14.615Z,99147.53
2018-07-28T09:57:42.282Z,99141.23
2018-07-28T10:00:10.837Z,99146.36
2018-07-28T10:02:39.662Z,99143.17
2018-07-28T10:05:08.967Z,99139.38
2018-07-28T10:07:36.667Z,99140.13
2018-07-28T10:10:04.771Z,99142.22
2018-07-28T10:12:32.483Z,99139.94
2018-07-28T10:15:00.179Z,99147.00
2018-07-28T10:17:28.219Z,99142.20
2018-07-28T10:19:55.962Z,99149.78
2018-07-28T10:22:23.654Z,99148.55
2018-07-28T10:24:51.817Z,99147.30
2018-07-28T10:27:20.160Z,99150.02
2018-07-28T10:29:47.826Z,99151.88
2018-07-28T10:32:16.237Z,99156.84
2018-07-28T10:34:43.942Z,99144.47
2018-07-28T10:37:13.343Z,99142.97
2018-07-28T10:39:42.767Z,99147.61
2018-07-28T10:42:10.425Z,99137.00
2018-07-28T10:44:40.387Z,99136.00
2018-07-28T10:47:09.919Z,99140.61
2018-07-28T10:49:37.639Z,99126.80
2018-07-28T10:52:05.762Z,99132.61
2018-07-28T10:54:34.659Z,99125.50
2018-07-28T10:57:02.571Z,99117.77
2018-07-28T10:59:30.623Z,99114.23
2018-07-28T11:01:58.341Z,99114.16
2018-07-28T11:04:26.851Z,99123.64
2018-07-28T11:06:56.554Z,99122.64
2018-07-28T11:09:24.241Z,99116.47
2018-07-28T11:12:09.642Z,99117.19
2018-07-28T11:14:37.829Z,99120.27
2018-07-28T11:17:05.528Z,99121.62
2018-07-28T11:19:34.155Z,99121.27
2018-07-28T11:22:02.988Z,99118.61
2018-07-28T11:24:30.689Z,99115.80
2018-07-28T11:27:01.063Z,99119.34
2018-07-28T11:29:30.669Z,99117.11
2018-07-28T11:31:58.394Z,99123.14
2018-07-28T11:34:26.075Z,99115.06
2018-07-28T11:36:55.587Z,99109.83
2018-07-28T11:39:23.250Z,99114.65
2018-07-28T11:41:52.515Z,99122.06
2018-07-28T11:44:20.607Z,99113.11
2018-07-28T11:46:48.263Z,99118.83
2018-07-28T11:49:17.102Z,99117.98
2018-07-28T11:51:46.018Z,99122.20
2018-07-28T11:54:16.478Z,99124.36
2018-07-28T11:56:44.137Z,99124.27
2018-07-28T11:59:12.473Z,99113.81
2018-07-28T12:01:40.279Z,99113.80
2018-07-28T12:04:08.623Z,99111.75
2018-07-28T12:06:36.747Z,99103.44
2018-07-28T12:09:04.438Z,99106.44
2018-07-28T12:11:32.375Z,99098.88
2018-07-28T12:14:01.193Z,99107.73
2018-07-28T12:16:28.887Z,99106.22
2018-07-28T12:18:56.571Z,99096.44
2018-07-28T12:21:24.524Z,99096.63
2018-07-28T12:23:52.946Z,99093.43
2018-07-28T12:26:20.657Z,99102.72
2018-07-28T12:28:50.400Z,99104.59
2018-07-28T12:31:18.141Z,99095.19
2018-07-28T12:33:45.898Z,99095.54
2018-07-28T12:36:15.670Z,99092.44
2018-07-28T12:38:44.487Z,99098.58
2018-07-28T12:41:13.151Z,99112.08
2018-07-28T12:43:41.279Z,99122.88
2018-07-28T12:46:08.946Z,99124.73
2018-07-28T12:48:36.578Z,99123.59
2018-07-28T12:51:04.688Z,99129.23
2018-07-28T12:53:32.372Z,99122.95
2018-07-28T12:56:00.119Z,99125.44
2018-07-28T12:58:28.230Z,99131.48
2018-07-28T13:00:55.883Z,99135.89
2018-07-28T13:03:23.854Z,99125.71
2018-07-28T13:05:51.958Z,99129.80
2018-07-28T13:08:19.598Z,99136.62
2018-07-28T13:10:47.293Z,99132.37
2018-07-28T13:13:16.107Z,99134.45
2018-07-28T13:15:43.741Z,99129.26
2018-07-28T13:18:12.552Z,99123.87
2018-07-28T13:20:41.225Z,99118.39
2018-07-28T13:23:10.746Z,99122.75
2018-07-28T13:25:38.649Z,99110.01
2018-07-28T13:28:06.774Z,99110.35
2018-07-28T13:30:34.408Z,99113.36
2018-07-28T13:33:03.003Z,99114.61
2018-07-28T13:35:31.779Z,99108.41
2018-07-28T13:38:01.240Z,99104.91
2018-07-28T13:40:28.980Z,99108.67
2018-07-28T13:42:59.637Z,99101.16
2018-07-28T13:45:28.674Z,99102.94
2018-07-28T13:47:56.330Z,99098.86
2018-07-28T13:50:25.227Z,99098.38
2018-07-28T13:52:57.368Z,99099.28
2018-07-28T13:55:25.367Z,99097.80
2018-07-28T13:57:53.485Z,99099.14
2018-07-28T14:00:21.377Z,99089.78
2018-07-28T14:02:50.634Z,99085.09
2018-07-28T14:05:18.695Z,99074.54
2018-07-28T14:07:46.586Z,99076.87
2018-07-28T14:10:14.331Z,99077.77
2018-07-28T14:12:44.472Z,99071.48
2018-07-28T14:15:13.395Z,99077.84
2018-07-28T14:17:41.084Z,99074.51
2018-07-28T14:20:10.039Z,99089.05
2018-07-28T14:22:38.592Z,99090.06
2018-07-28T14:25:07.163Z,99095.26
2018-07-28T14:27:35.463Z,99094.36
2018-07-28T14:30:04.684Z,99092.67
2018-07-28T14:32:33.350Z,99102.73
2018-07-28T14:35:02.242Z,99102.96
2018-07-28T14:37:29.922Z,99106.73
2018-07-28T14:39:57.557Z,99108.80
2018-07-28T14:42:25.719Z,99111.69
2018-07-28T14:44:53.379Z,99127.69
2018-07-28T14:47:22.360Z,99136.88
2018-07-28T14:49:50.343Z,99137.26
2018-07-28T14:52:18.103Z,99129.69
2018-07-28T14:54:45.823Z,99133.06
2018-07-28T14:57:13.938Z,99131.73
2018-07-28T14:59:41.598Z,99136.91
2018-07-28T15:02:10.135Z,99129.86
2018-07-28T15:04:40.567Z,99120.59
2018-07-28T15:07:08.347Z,99121.48
2018-07-28T15:09:36.067Z,99137.44
2018-07-28T15:12:04.260Z,99141.28
2018-07-28T15:14:31.941Z,99144.09
2018-07-28T15:16:59.594Z,99143.14
2018-07-28T15:19:27.588Z,99152.91
2018-07-28T15:21:55.228Z,99164.51
2018-07-28T15:24:23.218Z,99165.27
2018-07-28T15:26:51.227Z,99167.20
2018-07-28T15:29:21.088Z,99166.27
2018-07-28T15:31:48.758Z,99159.91
2018-07-28T15:34:16.867Z,99160.45
2018-07-28T15:36:45.407Z,99149.83
2018-07-28T15:39:14.461Z,99157.46
2018-07-28T15:41:43.014Z,99165.72
2018-07-28T15:44:10.668Z,99163.28
2018-07-28T15:46:38.352Z,99161.91
2018-07-28T15:49:06.790Z,99171.00
2018-07-28T15:51:35.314Z,99167.14
2018-07-28T15:54:06.179Z,99173.67
2018-07-28T15:56:34.263Z,99177.35
2018-07-28T15:59:02.566Z,99164.88
2018-07-28T16:01:30.317Z,99173.52
2018-07-28T16:03:57.989Z,99180.28
2018-07-28T16:06:26.330Z,99191.00
2018-07-28T16:08:54.359Z,99207.14
2018-07-28T16:11:22.671Z,99206.84
2018-07-28T16:13:50.337Z,99206.94
2018-07-28T16:16:20.018Z,99208.54
2018-07-28T16:18:48.535Z,99208.05
2018-07-28T16:21:19.483Z,99201.64
2018-07-28T16:23:47.461Z,99198.72
2018-07-28T16:26:15.176Z,99198.55
2018-07-28T16:28:42.871Z,99201.37
2018-07-28T16:31:11.486Z,99209.08
2018-07-28T16:33:39.309Z,99226.82
2018-07-28T16:36:06.979Z,99254.48
2018-07-28T16:38:35.137Z,99245.66
2018-07-28T16:41:02.783Z,99237.63
2018-07-28T16:43:30.453Z,99244.19
2018-07-28T16:45:58.502Z,99257.16
2018-07-28T16:48:26.631Z,99250.96
2018-07-28T16:50:55.328Z,99256.72
2018-07-28T16:53:23.333Z,99256.77
2018-07-28T16:55:54.922Z,99256.98
2018-07-28T16:58:22.571Z,99289.89
2018-07-28T17:00:50.533Z,99298.64
2018-07-28T17:03:19.110Z,99309.31
2018-07-28T17:05:46.812Z,99320.96
2018-07-28T17:08:16.198Z,99331.83
2018-07-28T17:10:45.410Z,99319.63
2018-07-28T17:13:13.107Z,99335.59
2018-07-28T17:15:42.283Z,99365.79
2018-07-28T17:18:09.950Z,99372.25
2018-07-28T17:20:39.556Z,99373.92
2018-07-28T17:23:07.479Z,99378.30
2018-07-28T17:25:36.717Z,99381.66
2018-07-28T17:28:05.002Z,99394.40
2018-07-28T17:30:36.207Z,99396.33
2018-07-28T17:33:08.948Z,99402.67
2018-07-28T17:35:40.168Z,99402.36
2018-07-28T17:38:08.347Z,99404.68
2018-07-28T17:40:36.548Z,99394.67
2018-07-28T17:43:05.629Z,99391.66
2018-07-28T17:45:38.099Z,99389.14
2018-07-28T17:48:07.410Z,99395.50
2018-07-28T17:50:35.768Z,99393.10
2018-07-28T17:53:05.527Z,99388.11
2018-07-28T17:55:33.229Z,99399.55
2018-07-28T17:58:01.713Z,99419.48
2018-07-28T18:00:30.191Z,99421.11
2018-07-28T18:02:57.871Z,99432.34
2018-07-28T18:05:26.156Z,99423.25
2018-07-28T18:07:55.185Z,99421.08
2018-07-28T18:10:24.501Z,99422.23
2018-07-28T18:12:52.165Z,99445.28
2018-07-28T18:15:20.107Z,99450.58
2018-07-28T18:17:47.786Z,99464.09
2018-07-28T18:20:16.059Z,99456.80
2018-07-28T18:22:44.007Z,99457.30
2018-07-28T18:25:11.713Z,99472.33
2018-07-28T18:27:39.420Z,99470.55
2018-07-28T18:30:07.689Z,99480.36
2018-07-28T18:32:35.331Z,99469.94
2018-07-28T18:35:04.351Z,99475.23
2018-07-28T18:37:33.132Z,99463.65
2018-07-28T18:40:00.766Z,99492.91
2018-07-28T18:42:29.279Z,99503.16
2018-07-28T18:44:57.252Z,99506.04
2018-07-28T18:47:25.207Z,99481.47
2018-07-28T18:49:52.898Z,99486.78
2018-07-28T18:52:22.671Z,99491.59
2018-07-28T18:54:50.510Z,99496.09
2018-07-28T18:57:18.172Z,99493.39
2018-07-28T18:59:49.218Z,99492.34
2018-07-28T19:02:18.067Z,99490.05
2018-07-28T19:04:46.772Z,99487.20
2018-07-28T19:07:16.438Z,99490.99
2018-07-28T19:09:51.542Z,99496.76
2018-07-28T19:12:23.532Z,99497.86
2018-07-28T19:14:51.346Z,99495.75
2018-07-28T19:17:20.691Z,99497.17
2018-07-28T19:19:48.659Z,99507.55
2018-07-28T19:22:21.246Z,99510.64
2018-07-28T19:24:48.967Z,99513.75
2018-07-28T19:27:17.487Z,99513.84
2018-07-28T19:29:46.967Z,99519.63
2018-07-28T19:32:14.652Z,99523.25
2018-07-28T19:34:42.360Z,99526.86
2018-07-28T19:37:15.668Z,99535.16
2018-07-28T19:39:44.471Z,99532.73
2018-07-28T19:42:17.716Z,99538.73
2018-07-28T19:44:47.359Z,99544.73
2018-07-28T19:47:16.320Z,99544.15
2018-07-28T19:49:44.671Z,99552.13
2018-07-28T19:52:15.390Z,99553.03
2018-07-28T19:54:46.626Z,99552.92
2018-07-28T19:57:14.568Z,99552.80
2018-07-28T19:59:42.261Z,99564.65
2018-07-28T20:02:10.239Z,99568.04
2018-07-28T20:04:37.937Z,99569.07
2018-07-28T20:07:07.965Z,99574.48
2018-07-28T20:09:36.771Z,99584.94
2018-07-28T20:12:04.459Z,99585.25
2018-07-28T20:14:32.836Z,99579.52
2018-07-28T20:17:00.810Z,99600.45
2018-07-28T20:19:29.426Z,99604.19
2018-07-28T20:22:05.498Z,99611.66
2018-07-28T20:24:34.299Z,99610.49
2018-07-28T20:27:03.399Z,99611.70
2018-07-28T20:29:31.633Z,99618.52
2018-07-28T20:32:00.109Z,99622.83
2018-07-28T20:34:28.741Z,99619.34
2018-07-28T20:36:56.444Z,99619.91
2018-07-28T20:39:24.474Z,99627.86
2018-07-28T20:41:52.318Z,99631.45
2018-07-28T20:44:21.965Z,99624.38
2018-07-28T20:46:49.949Z,99639.09
2018-07-28T20:49:18.858Z,99637.42
2018-07-28T20:51:50.467Z,99636.47
2018-07-28T20:54:18.465Z,99634.12
2018-07-28T20:56:46.993Z,99636.82
2018-07-28T20:59:20.453Z,99643.79
2018-07-28T21:01:54.471Z,99647.70
2018-07-28T21:04:23.456Z,99647.06
2018-07-28T21:06:52.459Z,99646.35
2018-07-28T21:09:21.251Z,99649.70
2018-07-28T21:11:49.645Z,99653.75
2018-07-28T21:14:17.321Z,99659.16
2018-07-28T21:16:45.263Z,99653.81
2018-07-28T21:19:12.955Z,99652.32
2018-07-28T21:21:42.350Z,99652.50
2018-07-28T21:24:14.300Z,99661.00
2018-07-28T21:26:43.269Z,99664.05
2018-07-28T21:29:11.970Z,99666.11
2018-07-28T21:31:39.935Z,99661.27
2018-07-28T21:34:07.599Z,99660.80
2018-07-28T21:36:35.555Z,99667.27
2018-07-28T21:39:03.651Z,99666.80
2018-07-28T21:41:31.332Z,99672.41
2018-07-28T21:43:58.993Z,99670.20
2018-07-28T21:46:27.643Z,99669.50
2018-07-28T21:48:55.312Z,99676.40
2018-07-28T21:51:23.819Z,99669.14
2018-07-28T21:53:51.749Z,99678.07
2018-07-28T21:56:23.755Z,99679.75
2018-07-28T21:58:51.415Z,99689.50
2018-07-28T22:01:19.507Z,99686.41
2018-07-28T22:03:49.601Z,99694.80
2018-07-28T22:06:17.230Z,99685.32
2018-07-28T22:08:45.881Z,99685.58
2018-07-28T22:11:14.343Z,99690.95
2018-07-28T22:13:42.560Z,99693.27
2018-07-28T22:16:10.606Z,99694.91
2018-07-28T22:18:39.350Z,99689.11
2018-07-28T22:21:07.003Z,99694.02
2018-07-28T22:23:35.786Z,99700.63
2018-07-28T22:26:05.631Z,99696.67
2018-07-28T22:28:33.926Z,99703.00
2018-07-28T22:31:02.459Z,99706.33
2018-07-28T22:33:30.144Z,99713.64
2018-07-28T22:35:58.780Z,99714.98
2018-07-28T22:38:26.742Z,99710.08
2018-07-28T22:40:56.630Z,99713.64
2018-07-28T22:43:25.264Z,99718.02
2018-07-28T22:45:54.651Z,99715.16
2018-07-28T22:48:23.187Z,99726.47
2018-07-28T22:50:51.656Z,99727.15
2018-07-28T22:53:19.672Z,99735.05
2018-07-28T22:55:47.403Z,99738.05
2018-07-28T22:58:15.077Z,99733.97
2018-07-28T23:00:43.271Z,99726.80
2018-07-28T23:03:10.971Z,99730.61
2018-07-28T23:05:38.666Z,99744.59
2018-07-28T23:08:06.317Z,99750.50
2018-07-28T23:10:34.288Z,99747.30
2018-07-28T23:13:02.758Z,99750.89
2018-07-28T23:15:30.457Z,99744.69
2018-07-28T23:17:58.394Z,99750.97
2018-07-28T23:20:26.065Z,99764.98
2018-07-28T23:22:53.714Z,99756.06
2018-07-28T23:25:25.493Z,99770.71
2018-07-28T23:27:54.371Z,99769.69
2018-07-28T23:30:22.546Z,99761.78
2018-07-28T23:32:51.296Z,99750.97
2018-07-28T23:35:18.971Z,99745.92
2018-07-28T23:37:46.609Z,99751.85
2018-07-28T23:40:14.582Z,99755.76
2018-07-28T23:42:42.267Z,99761.55
2018-07-28T23:45:11.017Z,99759.72
2018-07-28T23:47:38.680Z,99754.67
2018-07-28T23:52:37.206Z,99760.77
2018-07-28T23:55:04.871Z,99762.68
2018-07-28T23:57:32.942Z,99767.08
